Time;durP1;ratioP1;P1;durP2;ratioP2;P2;SDS_P1;SDS_P2;PMS_P1;PMS_P2;Temp;Humidity;BMP_temperature;BMP_pressure;BME280_temperature;BME280_humidity;BME280_pressure;Samples;Min_cycle;Max_cycle;Signal;HPM_P1;HPM_P2
2023/10/06 00:00:47;;;;;;;11.05;4.18;;;14.60;99.90;;;;;;5051758;28;20021;-70
2023/10/06 00:03:16;;;;;;;11.25;4.50;;;14.60;99.90;;;;;;5052435;28;20028;-70
2023/10/06 00:05:44;;;;;;;10.05;4.53;;;14.60;99.90;;;;;;5051949;28;20051;-70
2023/10/06 00:08:11;;;;;;;10.10;4.68;;;14.60;99.90;;;;;;5051129;28;20051;-70
2023/10/06 00:10:44;;;;;;;10.10;4.40;;;14.60;99.90;;;;;;5051725;28;20032;-70
2023/10/06 00:13:12;;;;;;;6.78;3.70;;;14.60;99.90;;;;;;5052266;28;20033;-70
2023/10/06 00:15:40;;;;;;;9.20;4.60;;;14.60;99.90;;;;;;5051941;28;20025;-70
2023/10/06 00:18:16;;;;;;;9.77;4.93;;;14.60;99.90;;;;;;5052509;28;20021;-69
2023/10/06 00:20:48;;;;;;;11.40;4.70;;;14.60;99.90;;;;;;5050238;28;20411;-70
2023/10/06 00:23:21;;;;;;;11.82;4.93;;;14.60;99.90;;;;;;5052210;28;20086;-70
2023/10/06 00:25:54;;;;;;;10.93;4.38;;;14.60;99.90;;;;;;5051499;28;20425;-69
2023/10/06 00:28:26;;;;;;;12.88;4.70;;;14.50;99.90;;;;;;5052108;28;20434;-70
2023/10/06 00:30:57;;;;;;;11.05;4.57;;;14.50;99.90;;;;;;5051727;28;20086;-69
2023/10/06 00:33:32;;;;;;;9.20;4.40;;;14.50;99.90;;;;;;5052307;28;20021;-70
2023/10/06 00:36:17;;;;;;;11.57;4.43;;;14.50;99.90;;;;;;5051434;28;20025;-70
2023/10/06 00:38:50;;;;;;;12.52;5.38;;;14.50;99.90;;;;;;5051765;28;20025;-70
2023/10/06 00:41:20;;;;;;;9.32;4.72;;;14.40;99.90;;;;;;5051854;28;20029;-70
2023/10/06 00:43:47;;;;;;;10.90;5.07;;;14.40;99.90;;;;;;5051999;28;20035;-70
2023/10/06 00:46:14;;;;;;;10.07;4.38;;;14.40;99.90;;;;;;5050328;28;20047;-70
2023/10/06 00:48:41;;;;;;;9.35;4.70;;;14.40;99.90;;;;;;5051294;28;20499;-70
2023/10/06 00:51:22;;;;;;;10.18;5.10;;;14.40;99.90;;;;;;5050174;28;20037;-70
2023/10/06 00:53:56;;;;;;;12.07;5.10;;;14.40;99.90;;;;;;5051857;28;20108;-69
2023/10/06 00:56:25;;;;;;;10.50;4.93;;;14.40;99.90;;;;;;5050323;28;20025;-70
2023/10/06 00:58:52;;;;;;;11.57;4.82;;;14.40;99.90;;;;;;5051239;28;20029;-69
2023/10/06 01:01:19;;;;;;;9.23;4.60;;;14.40;99.90;;;;;;5050287;28;20017;-70
2023/10/06 01:04:00;;;;;;;12.65;5.18;;;14.40;99.90;;;;;;5051585;28;20493;-70
2023/10/06 01:06:33;;;;;;;;;;;14.30;99.90;;;;;;5050835;28;20017;-70
2023/10/06 01:09:12;;;;;;;10.32;4.13;;;14.30;99.90;;;;;;5051292;28;19904;-69
2023/10/06 01:11:43;;;;;;;10.57;4.60;;;14.30;99.90;;;;;;5051418;28;20483;-70
2023/10/06 01:14:09;;;;;;;;;;;14.30;99.90;;;;;;5051581;28;20037;-70
2023/10/06 01:16:37;;;;;;;10.95;4.28;;;14.30;99.90;;;;;;5051597;28;20019;-70
2023/10/06 01:19:25;;;;;;;10.80;5.57;;;14.30;99.90;;;;;;5051124;28;20037;-70
2023/10/06 01:21:53;;;;;;;7.68;4.35;;;14.30;99.90;;;;;;5051557;28;20041;-69
2023/10/06 01:24:25;;;;;;;14.85;5.47;;;14.30;99.90;;;;;;5050923;28;20100;-69
2023/10/06 01:27:06;;;;;;;11.45;5.07;;;14.30;99.90;;;;;;5051693;28;20040;-69
2023/10/06 01:29:32;;;;;;;12.85;5.10;;;14.30;99.90;;;;;;5050947;28;20029;-69
2023/10/06 01:32:09;;;;;;;12.75;4.95;;;14.30;99.90;;;;;;5051345;28;20044;-69
2023/10/06 01:34:38;;;;;;;12.35;5.50;;;14.30;99.90;;;;;;5050828;28;20029;-69
2023/10/06 01:37:05;;;;;;;9.65;4.90;;;14.20;99.90;;;;;;5051272;28;20071;-69
2023/10/06 01:39:35;;;;;;;11.10;4.70;;;14.20;99.90;;;;;;5050582;28;20053;-69
2023/10/06 01:42:04;;;;;;;12.70;5.25;;;14.20;99.90;;;;;;5050059;28;20040;-69
2023/10/06 01:44:31;;;;;;;11.95;5.32;;;14.10;99.90;;;;;;5050715;28;20024;-69
2023/10/06 01:46:57;;;;;;;12.68;5.05;;;14.10;99.90;;;;;;5051260;28;20021;-69
2023/10/06 01:49:23;;;;;;;11.50;4.97;;;14.10;99.90;;;;;;5050523;28;20104;-69
2023/10/06 01:51:52;;;;;;;10.15;5.13;;;14.10;99.90;;;;;;5051570;28;20313;-70
2023/10/06 01:54:19;;;;;;;13.90;4.60;;;14.00;99.90;;;;;;5050795;28;20080;-69
2023/10/06 01:56:46;;;;;;;12.18;5.53;;;14.00;99.90;;;;;;5051085;28;20033;-70
2023/10/06 01:59:14;;;;;;;11.63;5.05;;;14.00;99.90;;;;;;5051206;28;20487;-70
2023/10/06 02:01:41;;;;;;;9.18;4.40;;;14.00;99.90;;;;;;5054604;28;20024;-70
2023/10/06 02:04:11;;;;;;;13.82;5.38;;;14.00;99.90;;;;;;5054304;28;20025;-69
2023/10/06 02:06:44;;;;;;;12.10;4.63;;;14.00;99.90;;;;;;5054729;28;20017;-69
2023/10/06 02:09:17;;;;;;;13.75;4.88;;;14.00;99.90;;;;;;5054323;28;20494;-69
2023/10/06 02:11:44;;;;;;;12.20;5.18;;;14.00;99.90;;;;;;5054463;28;20021;-69
2023/10/06 02:14:11;;;;;;;8.70;4.28;;;14.00;99.90;;;;;;5054732;28;20044;-69
2023/10/06 02:16:40;;;;;;;8.30;4.95;;;14.00;99.90;;;;;;5053147;28;20028;-69
2023/10/06 02:19:09;;;;;;;9.70;4.95;;;14.00;99.90;;;;;;5054090;28;20029;-69
2023/10/06 02:21:42;;;;;;;11.95;5.38;;;14.00;99.90;;;;;;5054295;28;20063;-70
2023/10/06 02:24:08;;;;;;;11.18;5.80;;;14.00;99.90;;;;;;5054146;28;20037;-69
2023/10/06 02:26:37;;;;;;;10.30;4.80;;;14.00;99.90;;;;;;5054086;28;20021;-69
2023/10/06 02:29:22;;;;;;;13.15;4.65;;;14.00;99.90;;;;;;5053986;28;20063;-69
2023/10/06 02:31:52;;;;;;;9.13;4.55;;;14.00;99.90;;;;;;5054241;28;20017;-70
2023/10/06 02:34:29;;;;;;;14.63;5.07;;;14.00;99.90;;;;;;5053837;28;20017;-69
2023/10/06 02:37:00;;;;;;;10.98;5.00;;;14.00;99.90;;;;;;5052670;28;20028;-70
2023/10/06 02:39:28;;;;;;;11.63;5.43;;;14.00;99.90;;;;;;5053780;28;20411;-70
2023/10/06 02:41:57;;;;;;;9.32;4.82;;;14.00;99.90;;;;;;5054257;28;20368;-69
2023/10/06 02:44:29;;;;;;;13.27;4.82;;;14.00;99.90;;;;;;5052459;28;20017;-69
2023/10/06 02:46:55;;;;;;;9.35;4.53;;;14.00;99.90;;;;;;5053916;28;20052;-70
2023/10/06 02:49:47;;;;;;;13.30;5.10;;;14.00;99.90;;;;;;5053403;28;20180;-69
2023/10/06 02:52:20;;;;;;;11.23;5.10;;;14.00;99.90;;;;;;5054153;28;20053;-69
2023/10/06 02:57:35;;;;;;;13.40;4.57;;;13.90;99.90;;;;;;5053906;28;20036;-69
2023/10/06 03:03:03;;;;;;;9.77;4.50;;;13.90;99.90;;;;;;5053714;28;20456;-69
2023/10/06 03:05:32;;;;;;;9.38;4.65;;;13.90;99.90;;;;;;5053175;28;20017;-69
2023/10/06 03:08:08;;;;;;;9.00;4.10;;;13.90;99.90;;;;;;5053516;28;20391;-69
2023/10/06 03:10:43;;;;;;;9.23;4.32;;;13.90;99.90;;;;;;5052939;28;20152;-70
2023/10/06 03:13:17;;;;;;;15.70;5.70;;;13.90;99.90;;;;;;5053388;28;20108;-69
2023/10/06 03:15:45;;;;;;;11.68;4.72;;;13.80;99.90;;;;;;5052776;28;20032;-70
2023/10/06 03:18:16;;;;;;;10.82;4.25;;;13.80;99.90;;;;;;5053248;28;20027;-69
2023/10/06 03:20:49;;;;;;;9.90;4.53;;;13.80;99.90;;;;;;5052634;28;20049;-70
2023/10/06 03:26:03;;;;;;;14.00;4.88;;;13.80;99.90;;;;;;5052972;28;20456;-69
2023/10/06 03:28:40;;;;;;;13.45;5.13;;;13.80;99.90;;;;;;5054091;28;20097;-69
2023/10/06 03:33:54;;;;;;;9.63;3.90;;;13.80;99.90;;;;;;5053142;28;20033;-70
2023/10/06 03:36:45;;;;;;;11.20;4.90;;;13.80;99.90;;;;;;5052316;28;20048;-70
2023/10/06 03:39:11;;;;;;;;;;;13.80;99.90;;;;;;5053343;28;20510;-70
2023/10/06 03:41:37;;;;;;;8.13;4.22;;;13.70;99.90;;;;;;5052366;28;19938;-70
2023/10/06 03:44:04;;;;;;;22.35;5.80;;;13.70;99.90;;;;;;5052716;28;20024;-70
2023/10/06 03:46:39;;;;;;;12.88;4.80;;;13.70;99.90;;;;;;5052057;28;20483;-70
2023/10/06 03:49:05;;;;;;;13.70;4.88;;;13.70;99.90;;;;;;5052507;28;20071;-70
2023/10/06 03:51:40;;;;;;;11.40;4.50;;;13.60;99.90;;;;;;5052214;28;20054;-69
2023/10/06 03:54:07;;;;;;;11.68;4.30;;;13.60;99.90;;;;;;5052947;28;20029;-69
2023/10/06 03:56:33;;;;;;;12.32;4.95;;;13.60;99.90;;;;;;5051101;28;20302;-70
2023/10/06 03:59:12;;;;;;;9.18;4.63;;;13.60;99.90;;;;;;5052539;28;20274;-70
2023/10/06 04:01:38;;;;;;;8.95;4.32;;;13.60;99.90;;;;;;5051854;28;20027;-69
2023/10/06 04:04:05;;;;;;;7.70;4.32;;;13.60;99.90;;;;;;5052690;28;20017;-69
2023/10/06 04:06:35;;;;;;;9.13;4.10;;;13.60;99.90;;;;;;5052053;28;20037;-69
2023/10/06 04:09:01;;;;;;;11.30;4.25;;;13.60;99.90;;;;;;5052445;28;20475;-70
2023/10/06 04:11:29;;;;;;;9.85;4.13;;;13.60;99.90;;;;;;5051568;28;20027;-70
2023/10/06 04:13:55;;;;;;;9.60;4.57;;;13.60;99.90;;;;;;5052454;28;20031;-69
2023/10/06 04:16:23;;;;;;;12.15;4.55;;;13.60;99.90;;;;;;5051832;28;20021;-69
2023/10/06 04:18:49;;;;;;;10.73;5.40;;;13.60;99.90;;;;;;5052288;28;20045;-69
2023/10/06 04:21:15;;;;;;;9.57;4.38;;;13.60;99.90;;;;;;5051368;28;20025;-70
2023/10/06 04:23:45;;;;;;;13.15;4.60;;;13.60;99.90;;;;;;5050397;28;20051;-70
2023/10/06 04:26:16;;;;;;;11.15;3.90;;;13.70;99.90;;;;;;5052053;28;20092;-70
2023/10/06 04:28:45;;;;;;;8.50;4.28;;;13.70;99.90;;;;;;5052362;28;20075;-70
2023/10/06 04:31:11;;;;;;;12.35;4.38;;;13.60;99.90;;;;;;5051315;28;20032;-70
2023/10/06 04:33:38;;;;;;;13.60;4.85;;;13.60;99.90;;;;;;5051913;28;20025;-70
2023/10/06 04:36:12;;;;;;;10.70;4.63;;;13.60;99.90;;;;;;5051440;28;20044;-70
2023/10/06 04:38:39;;;;;;;9.52;4.00;;;13.60;99.90;;;;;;5051916;28;20032;-70
2023/10/06 04:41:09;;;;;;;9.73;3.80;;;13.60;99.90;;;;;;5051171;28;20025;-70
2023/10/06 04:43:35;;;;;;;9.45;4.60;;;13.60;99.90;;;;;;5052032;28;20053;-70
2023/10/06 04:46:05;;;;;;;8.35;3.72;;;13.60;99.90;;;;;;5051107;28;20465;-70
2023/10/06 04:48:38;;;;;;;8.90;4.47;;;13.60;99.90;;;;;;5051753;28;20016;-70
2023/10/06 04:51:04;;;;;;;14.35;4.18;;;13.60;99.90;;;;;;5049905;28;20103;-71
2023/10/06 04:53:35;;;;;;;12.27;4.82;;;13.60;99.90;;;;;;5051754;28;20028;-71
2023/10/06 04:56:03;;;;;;;12.07;3.97;;;13.60;99.90;;;;;;5051186;28;20064;-70
2023/10/06 04:58:29;;;;;;;13.57;4.63;;;13.60;99.90;;;;;;5051704;28;20031;-71
2023/10/06 05:00:59;;;;;;;11.65;4.72;;;13.60;99.90;;;;;;5050996;28;20029;-70
2023/10/06 05:03:40;;;;;;;15.25;5.00;;;13.60;99.90;;;;;;5050363;28;20025;-70
2023/10/06 05:06:09;;;;;;;8.77;4.60;;;13.60;99.90;;;;;;5050965;28;20021;-70
2023/10/06 05:08:35;;;;;;;12.63;4.95;;;13.60;99.90;;;;;;5051823;28;20017;-70
2023/10/06 05:11:02;;;;;;;9.07;4.10;;;13.60;99.90;;;;;;5049728;28;20407;-70
2023/10/06 05:13:29;;;;;;;8.93;4.25;;;13.60;99.90;;;;;;5051620;28;20052;-70
2023/10/06 05:15:55;;;;;;;9.93;4.10;;;13.60;99.90;;;;;;5051393;28;20305;-70
2023/10/06 05:18:20;;;;;;;9.63;5.13;;;13.60;99.90;;;;;;5052210;28;20056;-70
2023/10/06 05:20:46;;;;;;;13.15;5.53;;;13.60;99.90;;;;;;5050832;28;20044;-70
2023/10/06 05:23:15;;;;;;;10.88;4.43;;;13.60;99.90;;;;;;5051674;28;20384;-70
2023/10/06 05:25:47;;;;;;;11.32;5.10;;;13.60;99.90;;;;;;5050901;28;20029;-70
2023/10/06 05:28:16;;;;;;;10.80;4.38;;;13.60;99.90;;;;;;5051560;28;20025;-70
2023/10/06 05:30:43;;;;;;;9.40;4.13;;;13.60;99.90;;;;;;5050835;28;20468;-70
2023/10/06 05:33:09;;;;;;;11.30;4.43;;;13.60;99.90;;;;;;5051462;28;20021;-70
2023/10/06 05:35:40;;;;;;;9.93;4.65;;;13.60;99.90;;;;;;5053931;28;20054;-70
2023/10/06 05:38:08;;;;;;;12.63;4.95;;;13.60;99.90;;;;;;5055279;28;20487;-70
2023/10/06 05:40:34;;;;;;;8.90;5.30;;;13.60;99.90;;;;;;5053113;28;20487;-70
2023/10/06 05:43:01;;;;;;;12.95;7.55;;;13.60;99.90;;;;;;5055101;28;20013;-70
2023/10/06 05:45:29;;;;;;;12.98;8.27;;;13.50;99.90;;;;;;5054500;28;20045;-70
2023/10/06 05:47:58;;;;;;;20.02;8.93;;;13.50;99.90;;;;;;5054895;28;20043;-70
2023/10/06 05:50:27;;;;;;;14.43;6.85;;;13.50;99.90;;;;;;5054183;28;20041;-70
2023/10/06 05:52:57;;;;;;;10.45;6.25;;;13.60;99.90;;;;;;5055002;28;20111;-70
2023/10/06 05:55:24;;;;;;;13.13;6.30;;;13.60;99.90;;;;;;5054457;28;20487;-70
2023/10/06 05:57:55;;;;;;;9.07;4.82;;;13.60;99.90;;;;;;5054914;28;20271;-70
2023/10/06 06:00:25;;;;;;;;;;;13.60;99.90;;;;;;5054523;28;20076;-70
2023/10/06 06:02:52;;;;;;;10.70;5.13;;;13.60;99.90;;;;;;5053500;28;20267;-70
2023/10/06 06:05:18;;;;;;;13.93;5.45;;;13.50;99.90;;;;;;5053919;28;20025;-70
2023/10/06 06:07:43;;;;;;;9.48;4.47;;;13.50;99.90;;;;;;5054778;28;20135;-70
2023/10/06 06:10:13;;;;;;;6.72;4.55;;;13.50;99.90;;;;;;5054375;28;20021;-70
2023/10/06 06:12:42;;;;;;;13.80;4.53;;;13.60;99.90;;;;;;5054381;28;20027;-70
2023/10/06 06:15:09;;;;;;;9.25;4.10;;;13.60;99.90;;;;;;5054097;28;20487;-70
2023/10/06 06:17:36;;;;;;;9.93;4.45;;;13.60;99.90;;;;;;5054232;28;20487;-70
2023/10/06 06:20:02;;;;;;;8.25;3.88;;;13.60;99.90;;;;;;5054052;28;20082;-70
2023/10/06 06:22:29;;;;;;;11.15;4.35;;;13.60;99.90;;;;;;5054283;28;20025;-70
2023/10/06 06:24:55;;;;;;;9.18;4.40;;;13.60;99.90;;;;;;5054069;28;20025;-70
2023/10/06 06:27:22;;;;;;;8.93;3.60;;;13.60;99.90;;;;;;5054175;28;20149;-70
2023/10/06 06:29:49;;;;;;;8.40;3.70;;;13.60;99.90;;;;;;5054065;28;20497;-70
2023/10/06 06:32:16;;;;;;;7.22;3.20;;;13.70;99.90;;;;;;5053819;28;20025;-71
2023/10/06 06:34:42;;;;;;;9.35;3.65;;;13.70;99.90;;;;;;5054306;28;20025;-70
2023/10/06 06:37:09;;;;;;;5.75;3.35;;;13.70;99.90;;;;;;5053556;28;20047;-70
2023/10/06 06:39:37;;;;;;;8.38;3.30;;;13.70;99.90;;;;;;5053987;28;20503;-69
2023/10/06 06:42:08;;;;;;;10.00;3.50;;;13.70;99.90;;;;;;5053407;28;20036;-70
2023/10/06 06:44:34;;;;;;;8.52;3.28;;;13.70;99.90;;;;;;5054045;28;20491;-70
2023/10/06 06:47:00;;;;;;;7.50;3.53;;;13.70;99.90;;;;;;5053037;28;20028;-70
2023/10/06 06:49:26;;;;;;;13.50;4.70;;;13.80;99.90;;;;;;5053880;28;20049;-70
2023/10/06 06:51:53;;;;;;;7.65;3.20;;;13.70;99.90;;;;;;5053163;28;20024;-70
2023/10/06 06:54:19;;;;;;;6.47;3.20;;;13.70;99.90;;;;;;5053902;28;20092;-70
2023/10/06 06:56:47;;;;;;;7.82;4.03;;;13.80;99.90;;;;;;5053128;28;20121;-70
2023/10/06 06:59:13;;;;;;;9.82;3.95;;;13.70;99.90;;;;;;5052360;28;20028;-70
2023/10/06 07:01:39;;;;;;;11.27;4.13;;;13.80;99.90;;;;;;5053587;28;20036;-70
2023/10/06 07:04:06;;;;;;;8.30;3.88;;;13.80;99.90;;;;;;5053917;28;20100;-70
2023/10/06 07:06:32;;;;;;;7.85;3.83;;;13.80;99.90;;;;;;5053167;28;20014;-70
2023/10/06 07:08:57;;;;;;;9.85;3.50;;;13.80;99.90;;;;;;5053662;28;20020;-70
2023/10/06 07:11:23;;;;;;;9.02;3.95;;;13.90;99.90;;;;;;5052866;28;20025;-70
2023/10/06 07:13:49;;;;;;;10.65;4.10;;;13.90;99.90;;;;;;5053644;28;20040;-71
2023/10/06 07:16:14;;;;;;;9.30;4.15;;;13.80;99.90;;;;;;5053006;28;20029;-70
2023/10/06 07:18:40;;;;;;;10.40;4.20;;;13.90;99.90;;;;;;5053268;28;20029;-71
2023/10/06 07:21:10;;;;;;;7.18;3.35;;;13.90;99.90;;;;;;5051334;28;20086;-70
2023/10/06 07:23:37;;;;;;;7.07;3.78;;;13.90;99.90;;;;;;5053099;28;20059;-70
2023/10/06 07:26:13;;;;;;;7.28;3.55;;;13.90;99.90;;;;;;5052522;28;20108;-70
2023/10/06 07:28:42;;;;;;;10.48;3.65;;;13.90;99.90;;;;;;5053125;28;20044;-70
2023/10/06 07:31:12;;;;;;;8.35;3.90;;;13.90;99.90;;;;;;5051208;28;20074;-70
2023/10/06 07:33:39;;;;;;;10.77;3.33;;;14.00;99.90;;;;;;5053143;28;20394;-70
2023/10/06 07:36:13;;;;;;;12.18;4.60;;;14.00;99.90;;;;;;5051141;28;20091;-70
2023/10/06 07:38:40;;;;;;;10.88;3.80;;;14.00;99.90;;;;;;5052908;28;20503;-70
2023/10/06 07:41:07;;;;;;;10.75;3.60;;;14.10;99.90;;;;;;5052384;28;20021;-70
2023/10/06 07:43:33;;;;;;;7.63;3.53;;;14.20;99.90;;;;;;5051516;28;20087;-69
2023/10/06 07:46:07;;;;;;;8.90;3.70;;;14.30;99.90;;;;;;5052291;28;20021;-70
2023/10/06 07:48:36;;;;;;;14.70;4.25;;;14.30;99.90;;;;;;5052725;28;20497;-70
2023/10/06 07:51:04;;;;;;;13.32;4.25;;;14.40;99.90;;;;;;5050626;28;20049;-70
2023/10/06 07:53:29;;;;;;;9.05;3.47;;;14.40;99.90;;;;;;5051400;28;20503;-70
2023/10/06 07:56:08;;;;;;;7.88;3.80;;;14.50;99.90;;;;;;5050669;28;20037;-70
2023/10/06 07:58:38;;;;;;;7.00;3.30;;;14.60;99.90;;;;;;5050607;28;20392;-70
2023/10/06 08:01:12;;;;;;;11.52;4.57;;;14.60;99.90;;;;;;5051782;28;20471;-70
2023/10/06 08:03:41;;;;;;;8.80;3.97;;;14.70;99.90;;;;;;5052453;28;20024;-70
2023/10/06 08:06:07;;;;;;;12.68;4.47;;;14.80;99.90;;;;;;5052180;28;20024;-70
2023/10/06 08:08:33;;;;;;;8.20;3.33;;;14.80;99.90;;;;;;5052353;28;20070;-70
2023/10/06 08:11:02;;;;;;;9.23;3.53;;;14.90;99.90;;;;;;5051689;28;20043;-71
2023/10/06 08:13:30;;;;;;;10.02;4.15;;;15.00;99.90;;;;;;5052266;28;20020;-70
2023/10/06 08:15:57;;;;;;;10.00;3.80;;;15.10;99.90;;;;;;5051585;28;20028;-70
2023/10/06 08:18:22;;;;;;;8.50;3.60;;;15.10;99.90;;;;;;5052137;28;20029;-70
2023/10/06 08:20:48;;;;;;;9.05;3.58;;;15.20;99.90;;;;;;5051410;28;20025;-70
2023/10/06 08:23:15;;;;;;;7.22;3.40;;;15.20;99.90;;;;;;5052009;28;20017;-70
2023/10/06 08:25:44;;;;;;;6.95;3.40;;;15.30;99.90;;;;;;5051806;28;20071;-70
2023/10/06 08:28:10;;;;;;;6.85;3.70;;;15.40;99.90;;;;;;5052050;28;20013;-70
2023/10/06 08:30:37;;;;;;;11.90;4.28;;;15.40;99.90;;;;;;5050597;28;20025;-70
2023/10/06 08:33:03;;;;;;;9.30;4.03;;;15.50;99.90;;;;;;5051737;28;20021;-70
2023/10/06 08:35:29;;;;;;;8.75;4.10;;;15.60;99.90;;;;;;5051648;28;20134;-71
2023/10/06 08:37:58;;;;;;;7.47;3.58;;;15.60;99.90;;;;;;5051728;28;20562;-70
2023/10/06 08:40:24;;;;;;;10.10;3.72;;;15.70;99.90;;;;;;5050285;28;20025;-70
2023/10/06 08:42:53;;;;;;;8.52;3.85;;;15.80;99.90;;;;;;5051862;28;20034;-70
2023/10/06 08:45:24;;;;;;;7.60;3.42;;;15.90;99.90;;;;;;5051674;28;20025;-71
2023/10/06 08:47:52;;;;;;;;;;;16.00;99.90;;;;;;5052412;28;20532;-70
2023/10/06 08:50:24;;;;;;;8.93;3.70;;;16.10;99.90;;;;;;5051326;28;20359;-70
2023/10/06 08:52:51;;;;;;;8.60;3.85;;;16.10;99.90;;;;;;5051559;28;20021;-70
2023/10/06 08:55:25;;;;;;;11.60;3.67;;;16.20;99.90;;;;;;5051554;28;20021;-70
2023/10/06 08:57:52;;;;;;;11.40;3.78;;;16.30;99.90;;;;;;5050068;28;20029;-70
2023/10/06 09:00:24;;;;;;;11.02;3.75;;;16.40;99.90;;;;;;5051462;28;20102;-70
2023/10/06 09:02:52;;;;;;;11.23;4.15;;;16.60;99.90;;;;;;5051471;28;20104;-70
2023/10/06 09:05:18;;;;;;;7.53;3.20;;;16.60;99.90;;;;;;5051789;28;20022;-70
2023/10/06 09:08:04;;;;;;;8.68;3.63;;;16.70;99.90;;;;;;5051140;28;20025;-70
2023/10/06 09:10:30;;;;;;;12.63;4.43;;;16.80;99.90;;;;;;5055246;28;20021;-70
2023/10/06 09:13:12;;;;;;;7.60;3.47;;;16.80;99.90;;;;;;5055510;28;20053;-70
2023/10/06 09:15:43;;;;;;;10.15;4.20;;;16.90;99.90;;;;;;5054109;28;20029;-70
2023/10/06 09:18:23;;;;;;;9.70;3.75;;;17.00;99.90;;;;;;5054195;28;20029;-70
2023/10/06 09:20:50;;;;;;;10.18;4.35;;;17.00;99.90;;;;;;5055120;28;20512;-70
2023/10/06 09:23:42;;;;;;;8.68;4.03;;;17.00;99.90;;;;;;5055204;28;20028;-70
2023/10/06 09:26:15;;;;;;;11.82;4.50;;;17.10;99.90;;;;;;5054574;28;20043;-70
2023/10/06 09:28:52;;;;;;;9.38;3.78;;;17.20;99.90;;;;;;5055540;28;20020;-70
2023/10/06 09:31:33;;;;;;;11.27;3.95;;;17.30;99.90;;;;;;5055039;28;20053;-70
2023/10/06 09:33:59;;;;;;;15.13;3.63;;;17.30;99.90;;;;;;5055866;28;20017;-70
2023/10/06 09:36:30;;;;;;;11.52;4.35;;;17.40;99.90;;;;;;5054862;28;20031;-70
2023/10/06 09:38:58;;;;;;;;;;;17.40;99.90;;;;;;5055871;28;20029;-70
2023/10/06 09:41:28;;;;;;;9.82;3.90;;;17.50;99.90;;;;;;5054518;28;19916;-70
2023/10/06 09:43:57;;;;;;;9.77;3.27;;;17.40;99.90;;;;;;5055113;28;20063;-70
2023/10/06 09:46:25;;;;;;;9.77;3.78;;;17.40;99.90;;;;;;5054442;28;20123;-70
2023/10/06 09:48:51;;;;;;;12.50;4.03;;;17.40;99.90;;;;;;5054959;28;20024;-70
2023/10/06 09:51:20;;;;;;;9.73;4.53;;;17.50;99.90;;;;;;5054526;28;20111;-71
2023/10/06 09:53:47;;;;;;;7.60;3.42;;;17.50;99.90;;;;;;5054913;28;20025;-70
2023/10/06 09:56:16;;;;;;;9.63;4.05;;;17.50;99.90;;;;;;5054230;28;20028;-71
2023/10/06 09:58:48;;;;;;;11.85;3.83;;;17.50;99.90;;;;;;5054739;28;20017;-71
2023/10/06 10:01:15;;;;;;;9.30;3.13;;;17.50;99.90;;;;;;5054091;28;20029;-70
2023/10/06 10:03:42;;;;;;;7.68;3.33;;;17.50;99.90;;;;;;5054936;28;20020;-71
2023/10/06 10:06:09;;;;;;;8.18;3.80;;;17.60;99.90;;;;;;5054106;28;20045;-70
2023/10/06 10:08:36;;;;;;;7.95;3.20;;;17.60;99.90;;;;;;5054641;28;20036;-70
2023/10/06 10:11:20;;;;;;;8.30;3.83;;;17.70;99.90;;;;;;5054028;28;20032;-70
2023/10/06 10:14:02;;;;;;;10.38;4.05;;;17.80;99.90;;;;;;5054752;28;20051;-70
2023/10/06 10:16:46;;;;;;;8.45;3.90;;;17.90;99.90;;;;;;5054258;28;20502;-70
2023/10/06 10:19:18;;;;;;;9.90;4.00;;;18.10;99.90;;;;;;5054529;28;20496;-71
2023/10/06 10:21:45;;;;;;;8.85;3.80;;;18.20;99.90;;;;;;5053691;28;20036;-70
2023/10/06 10:24:15;;;;;;;7.57;3.50;;;18.30;99.90;;;;;;5054620;28;20024;-70
2023/10/06 10:26:45;;;;;;;10.55;4.20;;;18.30;99.90;;;;;;5053697;28;20013;-71
2023/10/06 10:29:15;;;;;;;11.25;3.70;;;18.30;99.90;;;;;;5054403;28;20479;-71
2023/10/06 10:31:57;;;;;;;9.50;3.50;;;18.40;99.90;;;;;;5053683;28;20021;-71
2023/10/06 10:34:23;;;;;;;8.23;2.92;;;18.40;99.90;;;;;;5052917;28;20028;-71
2023/10/06 10:37:12;;;;;;;9.60;3.38;;;18.50;99.90;;;;;;5053667;28;20100;-71
2023/10/06 10:39:51;;;;;;;7.47;3.28;;;18.60;99.90;;;;;;5053926;28;20041;-71
2023/10/06 10:42:21;;;;;;;10.20;3.72;;;18.70;99.90;;;;;;5053363;28;20106;-71
2023/10/06 10:44:48;;;;;;;8.90;3.63;;;18.90;99.90;;;;;;5053953;28;20043;-71
2023/10/06 10:47:15;;;;;;;7.35;3.55;;;18.90;99.90;;;;;;5052051;28;20532;-70
2023/10/06 10:49:41;;;;;;;9.15;3.60;;;18.90;99.90;;;;;;5053786;28;20045;-71
2023/10/06 10:52:09;;;;;;;7.63;3.55;;;18.90;99.90;;;;;;5053089;28;20528;-70
2023/10/06 10:54:40;;;;;;;6.28;3.10;;;18.90;99.90;;;;;;5052657;28;20029;-70
2023/10/06 10:57:13;;;;;;;8.18;3.13;;;18.90;99.90;;;;;;5053132;28;20028;-71
2023/10/06 11:02:49;;;;;;;8.40;3.60;;;18.90;99.90;;;;;;5052769;28;20395;-70
2023/10/06 11:05:19;;;;;;;8.38;3.35;;;18.90;99.90;;;;;;5053620;28;20553;-71
2023/10/06 11:08:02;;;;;;;6.95;3.38;;;18.90;99.90;;;;;;5052818;28;20071;-71
2023/10/06 11:10:28;;;;;;;8.00;3.25;;;18.90;99.90;;;;;;5053730;28;20025;-70
2023/10/06 11:13:20;;;;;;;8.63;3.50;;;18.90;99.90;;;;;;5052824;28;20104;-70
2023/10/06 11:15:48;;;;;;;7.15;2.60;;;18.90;99.90;;;;;;5050813;28;20403;-71
2023/10/06 11:18:17;;;;;;;8.20;3.20;;;18.90;99.90;;;;;;5053427;28;20017;-70
2023/10/06 11:20:44;;;;;;;10.25;4.20;;;19.00;99.90;;;;;;5051940;28;20017;-71
2023/10/06 11:23:10;;;;;;;9.30;3.22;;;19.00;99.90;;;;;;5053041;28;20025;-70
2023/10/06 11:25:45;;;;;;;9.05;3.25;;;19.10;99.90;;;;;;5053359;28;20067;-70
2023/10/06 11:28:12;;;;;;;8.27;3.40;;;19.10;99.90;;;;;;5052761;28;20032;-70
2023/10/06 11:30:42;;;;;;;8.80;3.30;;;19.10;99.90;;;;;;5053092;28;20437;-71
2023/10/06 11:33:10;;;;;;;8.10;3.37;;;19.20;99.90;;;;;;5051593;28;20029;-70
2023/10/06 11:35:40;;;;;;;8.52;3.13;;;19.20;99.90;;;;;;5051642;28;20052;-71
2023/10/06 11:38:12;;;;;;;9.23;4.15;;;19.20;99.90;;;;;;5052331;28;20406;-71
2023/10/06 11:40:40;;;;;;;13.45;3.70;;;19.30;99.90;;;;;;5051651;28;20158;-70
2023/10/06 11:43:13;;;;;;;6.90;3.00;;;19.30;99.90;;;;;;5052673;28;20310;-71
2023/10/06 11:45:41;;;;;;;11.57;3.80;;;19.30;99.90;;;;;;5052884;28;20020;-71
2023/10/06 11:48:23;;;;;;;11.88;3.42;;;19.30;99.90;;;;;;5052196;28;20100;-70
2023/10/06 11:50:58;;;;;;;10.65;3.42;;;19.40;99.90;;;;;;5052601;28;20053;-70
2023/10/06 11:53:23;;;;;;;8.32;3.38;;;19.40;99.90;;;;;;5052408;28;20495;-70
2023/10/06 11:55:49;;;;;;;8.27;3.22;;;19.40;99.90;;;;;;5051410;28;20119;-70
2023/10/06 11:58:32;;;;;;;6.95;3.05;;;19.50;99.90;;;;;;5050816;28;20029;-71
2023/10/06 12:00:58;;;;;;;8.80;3.70;;;19.50;99.90;;;;;;5051072;28;20495;-71
2023/10/06 12:03:42;;;;;;;10.20;3.58;;;19.60;99.90;;;;;;5052178;28;20048;-71
2023/10/06 12:06:14;;;;;;;8.30;3.40;;;19.60;99.90;;;;;;5052002;28;20024;-71
2023/10/06 12:08:52;;;;;;;12.27;3.83;;;19.60;99.90;;;;;;5052420;28;20028;-71
2023/10/06 12:11:19;;;;;;;11.05;3.95;;;19.70;99.90;;;;;;5051867;28;20029;-71
2023/10/06 12:13:45;;;;;;;8.77;3.72;;;19.70;99.90;;;;;;5052117;28;20037;-71
2023/10/06 12:16:17;;;;;;;9.73;3.47;;;19.70;99.90;;;;;;5051956;28;20503;-71
2023/10/06 12:18:44;;;;;;;10.60;4.05;;;19.70;99.90;;;;;;5052008;28;20036;-71
2023/10/06 12:21:14;;;;;;;11.30;3.63;;;19.80;99.90;;;;;;5051908;28;20052;-71
2023/10/06 12:23:40;;;;;;;9.68;3.63;;;19.80;99.90;;;;;;5050666;28;20075;-71
2023/10/06 12:26:06;;;;;;;6.72;3.00;;;19.80;99.90;;;;;;5051850;28;20368;-71
2023/10/06 12:28:32;;;;;;;8.27;3.67;;;19.80;99.90;;;;;;5050495;28;20024;-71
2023/10/06 12:30:58;;;;;;;9.75;3.80;;;19.80;99.90;;;;;;5050749;28;20106;-71
2023/10/06 12:33:24;;;;;;;9.70;3.70;;;19.70;99.90;;;;;;5051394;28;20459;-71
2023/10/06 12:35:52;;;;;;;10.27;3.80;;;19.70;99.90;;;;;;5052130;28;20033;-71
2023/10/06 12:38:19;;;;;;;9.57;3.42;;;19.70;99.90;;;;;;5051425;28;20021;-71
2023/10/06 12:40:46;;;;;;;9.77;3.72;;;19.70;99.90;;;;;;5050541;28;20017;-71
2023/10/06 12:43:13;;;;;;;8.07;3.40;;;19.70;99.90;;;;;;5050901;28;20024;-71
2023/10/06 12:45:39;;;;;;;8.63;3.72;;;19.70;99.90;;;;;;5051917;28;20028;-71
2023/10/06 12:48:07;;;;;;;9.43;3.63;;;19.60;99.90;;;;;;5051037;28;20519;-70
2023/10/06 12:50:40;;;;;;;7.30;3.80;;;19.60;99.90;;;;;;5051702;28;20047;-71
2023/10/06 12:53:08;;;;;;;10.85;3.72;;;19.60;99.90;;;;;;5051316;28;20454;-71
2023/10/06 12:55:41;;;;;;;10.23;4.00;;;19.50;99.90;;;;;;5050483;28;20209;-71
2023/10/06 12:58:11;;;;;;;8.55;3.92;;;19.50;99.90;;;;;;5051155;28;20586;-71
2023/10/06 13:00:38;;;;;;;9.73;3.58;;;19.50;99.90;;;;;;5051554;28;20515;-71
2023/10/06 13:03:04;;;;;;;9.65;3.60;;;19.50;99.90;;;;;;5051032;28;20025;-71
2023/10/06 13:05:29;;;;;;;12.00;4.10;;;19.60;99.90;;;;;;5051811;28;20064;-71
2023/10/06 13:07:57;;;;;;;7.03;3.75;;;19.60;99.90;;;;;;5049676;28;20425;-71
2023/10/06 13:10:24;;;;;;;10.05;4.28;;;19.60;99.90;;;;;;5051635;28;20108;-71